Bontekoning — PH9144 — position and weather

sailwx.info

Track history (hours):
 
Tides and Currents Weather Stations Pressure Air Temp Water Temp Dewpoint Dewpoint Depression Visibility Wind Speed Wind Dir Waves Ship Positions

Bontekoning

Last reported at 2016-Jun-18 11:04 UTC. Time now 2016-Jun-30 12:19 UTC.
Position N 52°38' E 005°04'.
Warning: this ship's position is 12 days out of date.

; draft 2.6 m.

Type: Sailing vessel. MMSI: 244107000.

Date/timePositionNaut miles runAvg speedWind from/ knotsBaromVisibWave heightAir tempDewpointWater temp
2016-Jun-18 11:04N 52°38' E 005°04'0 0.0
2016-Jun-18 10:33N 52°38' E 005°04'0 0.0
2016-Jun-18 09:33N 52°38' E 005°04'0 0.0
2016-Jun-18 08:33N 52°38' E 005°04'0 0.0
2016-Jun-18 07:33N 52°38' E 005°04'0 0.0
2016-Jun-18 06:34N 52°38' E 005°04'0 0.0
2016-Jun-18 05:34N 52°38' E 005°04'0 0.0
2016-Jun-18 04:33N 52°38' E 005°04'0 0.0
2016-Jun-18 03:34N 52°38' E 005°04'0 0.0
2016-Jun-18 02:34N 52°38' E 005°04'0 0.0
2016-Jun-18 01:34N 52°38' E 005°04'0 0.0
2016-Jun-18 00:34N 52°38' E 005°04'0 0.0
2016-Jun-17 23:34N 52°38' E 005°04'0 0.0
2016-Jun-17 22:33N 52°38' E 005°04'0 0.0
2016-Jun-17 21:34N 52°38' E 005°04'0 0.0
2016-Jun-17 20:33N 52°38' E 005°04'0 0.0
2016-Jun-17 19:33N 52°38' E 005°04'0 0.0
2016-Jun-17 18:34N 52°38' E 005°04'0 0.0
2016-Jun-17 17:33N 52°38' E 005°04'0 0.0
2016-Jun-17 16:34N 52°38' E 005°04'0 0.0
2016-Jun-17 15:33N 52°38' E 005°04'0 0.0
2016-Jun-17 14:34N 52°38' E 005°04'0 0.0
2016-Jun-17 13:34N 52°38' E 005°04'0 0.0
2016-Jun-17 12:34N 52°38' E 005°04'0 0.0
2016-Jun-17 11:34N 52°38' E 005°04'0 0.0
2016-Jun-17 10:33N 52°38' E 005°04'0 0.0
2016-Jun-17 09:33N 52°38' E 005°04'0 0.0
2016-Jun-17 08:33N 52°38' E 005°04'0 0.0
2016-Jun-17 07:33N 52°38' E 005°04'0 0.0
2016-Jun-17 06:34N 52°38' E 005°04'0 0.0
2016-Jun-17 05:34N 52°38' E 005°04'0 0.0
2016-Jun-17 04:34N 52°38' E 005°04'0 0.0
2016-Jun-17 03:33N 52°38' E 005°04'0 0.0
2016-Jun-17 02:33N 52°38' E 005°04'0 0.0
2016-Jun-17 01:34N 52°38' E 005°04'0 0.0
2016-Jun-17 00:34N 52°38' E 005°04'0 0.0
2016-Jun-16 23:34N 52°38' E 005°04'0 0.0
2016-Jun-16 22:33N 52°38' E 005°04'0 0.0
2016-Jun-16 21:33N 52°38' E 005°04'0 0.0
2016-Jun-16 20:33N 52°38' E 005°04'0 0.0
2016-Jun-16 19:33N 52°38' E 005°04'0 0.0
2016-Jun-16 18:34N 52°38' E 005°04'0 0.0
2016-Jun-16 17:34N 52°38' E 005°04'0 0.0
2016-Jun-16 16:34N 52°38' E 005°04'0 0.0
2016-Jun-16 15:34N 52°38' E 005°04'0 0.0
2016-Jun-16 14:33N 52°38' E 005°04'0 0.0
2016-Jun-16 13:34N 52°38' E 005°04'0 0.0
2016-Jun-16 12:33N 52°38' E 005°04'0 0.0
2016-Jun-16 11:34N 52°38' E 005°04'0 0.0
2016-Jun-16 10:34N 52°38' E 005°04'0 0.0
2016-Jun-16 09:34N 52°38' E 005°04'0 0.0
2016-Jun-16 08:33N 52°38' E 005°04'0 0.0
2016-Jun-16 07:34N 52°38' E 005°04'0 0.0
2016-Jun-16 06:34N 52°38' E 005°04'0 0.0
2016-Jun-16 05:33N 52°38' E 005°04'0 0.0
2016-Jun-16 04:33N 52°38' E 005°04'0 0.0
2016-Jun-16 03:34N 52°38' E 005°04'0 0.0
2016-Jun-16 02:33N 52°38' E 005°04'0 0.0
2016-Jun-16 01:33N 52°38' E 005°04'0 0.0
2016-Jun-16 00:33N 52°38' E 005°04'0 0.0
2016-Jun-15 23:34N 52°38' E 005°04'0 0.0
2016-Jun-15 22:33N 52°38' E 005°04'0 0.0
2016-Jun-15 21:33N 52°38' E 005°04'0 0.0
2016-Jun-15 20:34N 52°38' E 005°04'0 0.0
2016-Jun-15 19:33N 52°38' E 005°04'0 0.0
2016-Jun-15 18:33N 52°38' E 005°04'0 0.0
2016-Jun-15 17:33N 52°38' E 005°04'0 0.0
2016-Jun-15 16:34N 52°38' E 005°04'0 0.0
2016-Jun-15 15:33N 52°38' E 005°04'3 3.1
2016-Jun-15 14:33N 52°36' E 005°07'4 4.4
2016-Jun-15 13:34N 52°32' E 005°09'5 5.1
2016-Jun-15 12:33N 52°26' E 005°10'6 5.8
2016-Jun-15 11:33N 52°23' E 005°03'3 3.0
2016-Jun-15 10:34N 52°23' E 004°58'3 3.2
2016-Jun-15 09:34N 52°24' E 004°53'5 5.1
2016-Jun-15 08:34N 52°26' E 004°45'5 5.4
2016-Jun-15 07:33N 52°28' E 004°37'1 0.6
2016-Jun-15 06:33N 52°28' E 004°36'0 0.0
2016-Jun-15 05:33N 52°28' E 004°36'0 0.0
2016-Jun-15 04:33N 52°28' E 004°36'0 0.0
2016-Jun-15 03:33N 52°28' E 004°36'0 0.0
2016-Jun-15 02:33N 52°28' E 004°36'0 0.0
2016-Jun-15 01:33N 52°28' E 004°36'0 0.0
2016-Jun-15 00:33N 52°28' E 004°36'0 0.0
2016-Jun-14 23:33N 52°28' E 004°36'0 0.0
2016-Jun-14 22:33N 52°28' E 004°36'0 0.0
2016-Jun-14 21:33N 52°28' E 004°36'0 0.3
2016-Jun-14 20:33N 52°28' E 004°35'6 6.0
2016-Jun-14 19:34N 52°28' E 004°25'7 6.9
2016-Jun-14 18:33N 52°27' E 004°14'5 5.3
2016-Jun-14 17:33N 52°24' E 004°07'5 4.9
2016-Jun-14 16:33N 52°21' E 004°00'77 6.4
2016-Jun-14 04:31N 51°43' E 002°11'5 4.8
2016-Jun-14 03:34N 51°39' E 002°06'5 4.9
2016-Jun-14 02:34N 51°36' E 002°01'3 3.3
2016-Jun-14 01:33N 51°33' E 001°57'3 2.9
2016-Jun-14 00:33N 51°31' E 001°54'4 3.9
2016-Jun-13 23:34N 51°28' E 001°50'4 4.2
2016-Jun-13 22:34N 51°24' E 001°47'5 4.6
2016-Jun-13 21:33N 51°21' E 001°43'4 4.0
2016-Jun-13 20:34N 51°17' E 001°39'4 4.3
2016-Jun-13 19:34N 51°13' E 001°36'6 6.3
2016-Jun-13 18:34N 51°08' E 001°31'6 6.0
2016-Jun-13 17:34N 51°05' E 001°23'13 5.9
2016-Jun-13 15:21N 51°01' E 001°03'1 1.0
2016-Jun-13 14:33N 51°01' E 001°02'0 0.0
2016-Jun-13 13:33N 51°01' E 001°02'0 0.0
2016-Jun-13 06:16N 51°01' E 001°02'0 0.0
2016-Jun-13 04:33N 51°01' E 001°02'0 0.0
2016-Jun-13 03:33N 51°01' E 001°02'0 0.0
2016-Jun-13 02:34N 51°01' E 001°02'4 2.1
2016-Jun-13 00:31N 50°57' E 001°06'4 4.3
2016-Jun-12 23:32N 50°54' E 001°01'4 3.6
2016-Jun-12 22:33N 50°53' E 000°56'15 4.8
2016-Jun-12 19:23N 50°50' E 000°32'4 4.8
2016-Jun-12 18:33N 50°49' E 000°26'5 4.6
2016-Jun-12 17:33N 50°46' E 000°20'6 5.7
2016-Jun-12 16:32N 50°43' E 000°13'6 5.8
2016-Jun-12 15:30N 50°41' E 000°04'6 6.3
2016-Jun-12 14:33N 50°40' W 000°05'7 6.9
2016-Jun-12 13:33N 50°39' W 000°16'7 7.0
2016-Jun-12 12:33N 50°38' W 000°27'6 6.0
2016-Jun-12 11:33N 50°38' W 000°36'6 5.8
2016-Jun-12 10:34N 50°39' W 000°45'7 6.7
2016-Jun-12 09:33N 50°41' W 000°55'7 7.3
2016-Jun-12 08:33N 50°45' W 001°05'3 2.8
2016-Jun-12 07:34N 50°48' W 001°07'0 0.0
2016-Jun-12 06:33N 50°48' W 001°07'0 0.0
2016-Jun-12 04:33N 50°48' W 001°07'0 0.0
2016-Jun-12 03:33N 50°48' W 001°07'0 0.0
2016-Jun-12 02:34N 50°48' W 001°07'0 0.0
2016-Jun-12 01:34N 50°48' W 001°07'0 0.0
2016-Jun-12 00:33N 50°48' W 001°07'4 3.7
2016-Jun-11 23:33N 50°44' W 001°04'7 6.6
2016-Jun-11 22:33N 50°38' W 001°05'7 7.5
2016-Jun-11 21:33N 50°32' W 001°12'6 6.2
2016-Jun-11 20:33N 50°26' W 001°17'76 1.7
2016-Jun-10 00:13N 49°27' W 002°32'0 0.0
2016-Jun-09 23:33N 49°27' W 002°32'0 0.0
2016-Jun-09 22:34N 49°27' W 002°32'0 0.0
2016-Jun-09 21:33N 49°27' W 002°32'0 0.0
2016-Jun-09 20:33N 49°27' W 002°32'0 0.0
2016-Jun-09 19:33N 49°27' W 002°32'0 0.0
2016-Jun-09 18:34N 49°27' W 002°32'0 0.0
2016-Jun-09 17:34N 49°27' W 002°32'0 0.0
2016-Jun-09 16:34N 49°27' W 002°32'0 0.0
2016-Jun-09 15:22N 49°27' W 002°32'0 0.0
2016-Jun-09 14:15N 49°27' W 002°32'0 0.0
2016-Jun-09 13:33N 49°27' W 002°32'0 0.0
2016-Jun-09 12:32N 49°27' W 002°32'0 0.0
2016-Jun-09 11:33N 49°27' W 002°32'0 0.0
2016-Jun-09 06:25N 49°27' W 002°32'0 0.0
2016-Jun-09 05:32N 49°27' W 002°32'0 0.0
2016-Jun-09 04:23N 49°27' W 002°32'0 0.0
2016-Jun-09 03:32N 49°27' W 002°32'  
Track history (hours):
 
Tides and Currents Weather Stations Pressure Air Temp Water Temp Dewpoint Dewpoint Depression Visibility Wind Speed Wind Dir Waves Ship Positions

Bontekoning

Last reported at 2016-Jun-18 11:04 UTC. Time now 2016-Jun-30 12:19 UTC.
Position N 52°38' E 005°04'.
Warning: this ship's position is 12 days out of date.

; draft 2.6 m.

Type: Sailing vessel. MMSI: 244107000.

Date/timePositionNaut miles runAvg speedWind from/ knotsBaromVisibWave heightAir tempDewpointWater temp
2016-Jun-18 11:04N 52°38' E 005°04'0 0.0
2016-Jun-18 10:33N 52°38' E 005°04'0 0.0
2016-Jun-18 09:33N 52°38' E 005°04'0 0.0
2016-Jun-18 08:33N 52°38' E 005°04'0 0.0
2016-Jun-18 07:33N 52°38' E 005°04'0 0.0
2016-Jun-18 06:34N 52°38' E 005°04'0 0.0
2016-Jun-18 05:34N 52°38' E 005°04'0 0.0
2016-Jun-18 04:33N 52°38' E 005°04'0 0.0
2016-Jun-18 03:34N 52°38' E 005°04'0 0.0
2016-Jun-18 02:34N 52°38' E 005°04'0 0.0
2016-Jun-18 01:34N 52°38' E 005°04'0 0.0
2016-Jun-18 00:34N 52°38' E 005°04'0 0.0
2016-Jun-17 23:34N 52°38' E 005°04'0 0.0
2016-Jun-17 22:33N 52°38' E 005°04'0 0.0
2016-Jun-17 21:34N 52°38' E 005°04'0 0.0
2016-Jun-17 20:33N 52°38' E 005°04'0 0.0
2016-Jun-17 19:33N 52°38' E 005°04'0 0.0
2016-Jun-17 18:34N 52°38' E 005°04'0 0.0
2016-Jun-17 17:33N 52°38' E 005°04'0 0.0
2016-Jun-17 16:34N 52°38' E 005°04'0 0.0
2016-Jun-17 15:33N 52°38' E 005°04'0 0.0
2016-Jun-17 14:34N 52°38' E 005°04'0 0.0
2016-Jun-17 13:34N 52°38' E 005°04'0 0.0
2016-Jun-17 12:34N 52°38' E 005°04'0 0.0
2016-Jun-17 11:34N 52°38' E 005°04'0 0.0
2016-Jun-17 10:33N 52°38' E 005°04'0 0.0
2016-Jun-17 09:33N 52°38' E 005°04'0 0.0
2016-Jun-17 08:33N 52°38' E 005°04'0 0.0
2016-Jun-17 07:33N 52°38' E 005°04'0 0.0
2016-Jun-17 06:34N 52°38' E 005°04'0 0.0
2016-Jun-17 05:34N 52°38' E 005°04'0 0.0
2016-Jun-17 04:34N 52°38' E 005°04'0 0.0
2016-Jun-17 03:33N 52°38' E 005°04'0 0.0
2016-Jun-17 02:33N 52°38' E 005°04'0 0.0
2016-Jun-17 01:34N 52°38' E 005°04'0 0.0
2016-Jun-17 00:34N 52°38' E 005°04'0 0.0
2016-Jun-16 23:34N 52°38' E 005°04'0 0.0
2016-Jun-16 22:33N 52°38' E 005°04'0 0.0
2016-Jun-16 21:33N 52°38' E 005°04'0 0.0
2016-Jun-16 20:33N 52°38' E 005°04'0 0.0
2016-Jun-16 19:33N 52°38' E 005°04'0 0.0
2016-Jun-16 18:34N 52°38' E 005°04'0 0.0
2016-Jun-16 17:34N 52°38' E 005°04'0 0.0
2016-Jun-16 16:34N 52°38' E 005°04'0 0.0
2016-Jun-16 15:34N 52°38' E 005°04'0 0.0
2016-Jun-16 14:33N 52°38' E 005°04'0 0.0
2016-Jun-16 13:34N 52°38' E 005°04'0 0.0
2016-Jun-16 12:33N 52°38' E 005°04'0 0.0
2016-Jun-16 11:34N 52°38' E 005°04'0 0.0
2016-Jun-16 10:34N 52°38' E 005°04'0 0.0
2016-Jun-16 09:34N 52°38' E 005°04'0 0.0
2016-Jun-16 08:33N 52°38' E 005°04'0 0.0
2016-Jun-16 07:34N 52°38' E 005°04'0 0.0
2016-Jun-16 06:34N 52°38' E 005°04'0 0.0
2016-Jun-16 05:33N 52°38' E 005°04'0 0.0
2016-Jun-16 04:33N 52°38' E 005°04'0 0.0
2016-Jun-16 03:34N 52°38' E 005°04'0 0.0
2016-Jun-16 02:33N 52°38' E 005°04'0 0.0
2016-Jun-16 01:33N 52°38' E 005°04'0 0.0
2016-Jun-16 00:33N 52°38' E 005°04'0 0.0
2016-Jun-15 23:34N 52°38' E 005°04'0 0.0
2016-Jun-15 22:33N 52°38' E 005°04'0 0.0
2016-Jun-15 21:33N 52°38' E 005°04'0 0.0
2016-Jun-15 20:34N 52°38' E 005°04'0 0.0
2016-Jun-15 19:33N 52°38' E 005°04'0 0.0
2016-Jun-15 18:33N 52°38' E 005°04'0 0.0
2016-Jun-15 17:33N 52°38' E 005°04'0 0.0
2016-Jun-15 16:34N 52°38' E 005°04'0 0.0
2016-Jun-15 15:33N 52°38' E 005°04'3 3.1
2016-Jun-15 14:33N 52°36' E 005°07'4 4.4
2016-Jun-15 13:34N 52°32' E 005°09'5 5.1
2016-Jun-15 12:33N 52°26' E 005°10'6 5.8
2016-Jun-15 11:33N 52°23' E 005°03'3 3.0
2016-Jun-15 10:34N 52°23' E 004°58'3 3.2
2016-Jun-15 09:34N 52°24' E 004°53'5 5.1
2016-Jun-15 08:34N 52°26' E 004°45'5 5.4
2016-Jun-15 07:33N 52°28' E 004°37'1 0.6
2016-Jun-15 06:33N 52°28' E 004°36'0 0.0
2016-Jun-15 05:33N 52°28' E 004°36'0 0.0
2016-Jun-15 04:33N 52°28' E 004°36'0 0.0
2016-Jun-15 03:33N 52°28' E 004°36'0 0.0
2016-Jun-15 02:33N 52°28' E 004°36'0 0.0
2016-Jun-15 01:33N 52°28' E 004°36'0 0.0
2016-Jun-15 00:33N 52°28' E 004°36'0 0.0
2016-Jun-14 23:33N 52°28' E 004°36'0 0.0
2016-Jun-14 22:33N 52°28' E 004°36'0 0.0
2016-Jun-14 21:33N 52°28' E 004°36'0 0.3
2016-Jun-14 20:33N 52°28' E 004°35'6 6.0
2016-Jun-14 19:34N 52°28' E 004°25'7 6.9
2016-Jun-14 18:33N 52°27' E 004°14'5 5.3
2016-Jun-14 17:33N 52°24' E 004°07'5 4.9
2016-Jun-14 16:33N 52°21' E 004°00'77 6.4
2016-Jun-14 04:31N 51°43' E 002°11'5 4.8
2016-Jun-14 03:34N 51°39' E 002°06'5 4.9
2016-Jun-14 02:34N 51°36' E 002°01'3 3.3
2016-Jun-14 01:33N 51°33' E 001°57'3 2.9
2016-Jun-14 00:33N 51°31' E 001°54'4 3.9
2016-Jun-13 23:34N 51°28' E 001°50'4 4.2
2016-Jun-13 22:34N 51°24' E 001°47'5 4.6
2016-Jun-13 21:33N 51°21' E 001°43'4 4.0
2016-Jun-13 20:34N 51°17' E 001°39'4 4.3
2016-Jun-13 19:34N 51°13' E 001°36'6 6.3
2016-Jun-13 18:34N 51°08' E 001°31'6 6.0
2016-Jun-13 17:34N 51°05' E 001°23'13 5.9
2016-Jun-13 15:21N 51°01' E 001°03'1 1.0
2016-Jun-13 14:33N 51°01' E 001°02'0 0.0
2016-Jun-13 13:33N 51°01' E 001°02'0 0.0
2016-Jun-13 06:16N 51°01' E 001°02'0 0.0
2016-Jun-13 04:33N 51°01' E 001°02'0 0.0
2016-Jun-13 03:33N 51°01' E 001°02'0 0.0
2016-Jun-13 02:34N 51°01' E 001°02'4 2.1
2016-Jun-13 00:31N 50°57' E 001°06'4 4.3
2016-Jun-12 23:32N 50°54' E 001°01'4 3.6
2016-Jun-12 22:33N 50°53' E 000°56'15 4.8
2016-Jun-12 19:23N 50°50' E 000°32'4 4.8
2016-Jun-12 18:33N 50°49' E 000°26'5 4.6
2016-Jun-12 17:33N 50°46' E 000°20'6 5.7
2016-Jun-12 16:32N 50°43' E 000°13'6 5.8
2016-Jun-12 15:30N 50°41' E 000°04'6 6.3
2016-Jun-12 14:33N 50°40' W 000°05'7 6.9
2016-Jun-12 13:33N 50°39' W 000°16'7 7.0
2016-Jun-12 12:33N 50°38' W 000°27'6 6.0
2016-Jun-12 11:33N 50°38' W 000°36'6 5.8
2016-Jun-12 10:34N 50°39' W 000°45'7 6.7
2016-Jun-12 09:33N 50°41' W 000°55'7 7.3
2016-Jun-12 08:33N 50°45' W 001°05'3 2.8
2016-Jun-12 07:34N 50°48' W 001°07'0 0.0
2016-Jun-12 06:33N 50°48' W 001°07'0 0.0
2016-Jun-12 04:33N 50°48' W 001°07'0 0.0
2016-Jun-12 03:33N 50°48' W 001°07'0 0.0
2016-Jun-12 02:34N 50°48' W 001°07'0 0.0
2016-Jun-12 01:34N 50°48' W 001°07'0 0.0
2016-Jun-12 00:33N 50°48' W 001°07'4 3.7
2016-Jun-11 23:33N 50°44' W 001°04'7 6.6
2016-Jun-11 22:33N 50°38' W 001°05'7 7.5
2016-Jun-11 21:33N 50°32' W 001°12'6 6.2
2016-Jun-11 20:33N 50°26' W 001°17'76 1.7
2016-Jun-10 00:13N 49°27' W 002°32'0 0.0
2016-Jun-09 23:33N 49°27' W 002°32'0 0.0
2016-Jun-09 22:34N 49°27' W 002°32'0 0.0
2016-Jun-09 21:33N 49°27' W 002°32'0 0.0
2016-Jun-09 20:33N 49°27' W 002°32'0 0.0
2016-Jun-09 19:33N 49°27' W 002°32'0 0.0
2016-Jun-09 18:34N 49°27' W 002°32'0 0.0
2016-Jun-09 17:34N 49°27' W 002°32'0 0.0
2016-Jun-09 16:34N 49°27' W 002°32'0 0.0
2016-Jun-09 15:22N 49°27' W 002°32'0 0.0
2016-Jun-09 14:15N 49°27' W 002°32'0 0.0
2016-Jun-09 13:33N 49°27' W 002°32'0 0.0
2016-Jun-09 12:32N 49°27' W 002°32'0 0.0
2016-Jun-09 11:33N 49°27' W 002°32'0 0.0
2016-Jun-09 06:25N 49°27' W 002°32'0 0.0
2016-Jun-09 05:32N 49°27' W 002°32'0 0.0
2016-Jun-09 04:23N 49°27' W 002°32'0 0.0
2016-Jun-09 03:32N 49°27' W 002°32'  

Dump ship's entire track history